Latest Weather Observations for Wattamolla

IDN60901

Issued at 5:31 am EDT Friday 24 February 2017 (issued every 10 minutes, with the page automatically refreshed every 10 minutes)

About weather observations | Map of Sydney area stations | Latest observations for Sydney area | Other Formats
Station Details ID: 066208 Name: WATTAMOLLA AWS Lat: -34.14 Lon: 151.12 Height: 44.0 m
Data from the previous 72 hours. | See also: Recent months for locations in New South Wales
Date/Time
EDT
Temp
°C
App
Temp
°C
Dew
Point
°C
Rel
Hum
%
Delta-T
°C
Wind Press
QNH
hPa
Press
MSL
hPa
Rain since
9am
mm
Dir  Spd
km/h
Gust
km/h
Spd
kts
Gust
kts
24/05:00am - - - - - SW 17 24 9 13 - - -
24/04:30am - - - - - SW 13 17 7 9 - - -
24/04:00am - - - - - SW 15 24 8 13 - - -
24/03:30am - - - - - SSW 11 15 6 8 - - -
24/03:00am - - - - - SW 9 11 5 6 - - -
24/02:30am - - - - - SSW 9 13 5 7 - - -
24/02:00am - - - - - N 13 17 7 9 - - -
24/01:30am - - - - - N 17 20 9 11 - - -
24/01:00am - - - - - N 19 26 10 14 - - -
24/12:30am - - - - - N 17 22 9 12 - - -
24/12:00am - - - - - N 26 37 14 20 - - -
 
Date/Time
EDT
Temp
°C
App
Temp
°C
Dew
Point
°C
Rel
Hum
%
Delta-T
°C
Wind Press
QNH
hPa
Press
MSL
hPa
Rain since
9am
mm
Dir  Spd
km/h
Gust
km/h
Spd
kts
Gust
kts
23/11:30pm - - - - - N 20 30 11 16 - - -
23/11:00pm - - - - - N 24 32 13 17 - - -
23/10:30pm - - - - - N 30 39 16 21 - - -
23/10:00pm - - - - - N 30 37 16 20 - - -
23/09:30pm - - - - - N 26 35 14 19 - - -
23/09:00pm - - - - - N 24 30 13 16 - - -
23/08:30pm - - - - - N 20 28 11 15 - - -
23/08:00pm - - - - - N 22 30 12 16 - - -
23/07:30pm - - - - - N 24 35 13 19 - - -
23/07:00pm - - - - - NNE 28 41 15 22 - - -
23/06:30pm - - - - - NNE 32 50 17 27 - - -
23/06:22pm - - - - - NNE 32 50 17 27 - - -
23/06:00pm - - - - - NNE 32 46 17 25 - - -
23/05:30pm - - - - - NNE 30 44 16 24 - - -
23/05:02pm - - - - - NNE 28 46 15 25 - - -
23/05:00pm - - - - - NNE 28 44 15 24 - - -
23/04:30pm - - - - - NNE 24 39 13 21 - - -
23/04:00pm - - - - - NE 28 41 15 22 - - -
23/03:30pm - - - - - NNE 20 35 11 19 - - -
23/03:00pm - - - - - NE 28 39 15 21 - - -
23/02:30pm - - - - - NE 26 39 14 21 - - -
23/02:00pm - - - - - NE 30 41 16 22 - - -
23/01:30pm - - - - - NE 26 39 14 21 - - -
23/01:00pm - - - - - NE 26 37 14 20 - - -
23/12:30pm - - - - - NE 26 35 14 19 - - -
23/12:00pm - - - - - NE 26 35 14 19 - - -
23/11:30am - - - - - NE 24 35 13 19 - - -
23/11:00am - - - - - NE 22 30 12 16 - - -
23/10:30am - - - - - N 20 30 11 16 - - -
23/09:30am - - - - - N 19 28 10 15 - - -
23/09:00am - - - - - N 19 30 10 16 - - -
23/08:30am - - - - - N 19 26 10 14 - - -
23/08:00am - - - - - N 15 20 8 11 - - -
23/07:30am - - - - - NNW 15 19 8 10 - - -
23/07:00am - - - - - NNW 17 19 9 10 - - -
23/06:30am - - - - - NNW 13 17 7 9 - - -
23/06:00am - - - - - N 22 30 12 16 - - -
23/05:30am - - - - - N 22 30 12 16 - - -
23/05:00am - - - - - N 22 32 12 17 - - -
23/04:30am - - - - - N 24 32 13 17 - - -
23/04:00am - - - - - N 24 33 13 18 - - -
23/03:30am - - - - - N 24 35 13 19 - - -
23/03:00am - - - - - N 24 33 13 18 - - -
23/02:30am - - - - - N 26 37 14 20 - - -
23/02:00am - - - - - N 28 35 15 19 - - -
23/01:30am - - - - - N 30 39 16 21 - - -
23/01:00am - - - - - N 28 37 15 20 - - -
23/12:30am - - - - - N 26 33 14 18 - - -
23/12:00am - - - - - N 24 30 13 16 - - -
 
Date/Time
EDT
Temp
°C
App
Temp
°C
Dew
Point
°C
Rel
Hum
%
Delta-T
°C
Wind Press
QNH
hPa
Press
MSL
hPa
Rain since
9am
mm
Dir  Spd
km/h
Gust
km/h
Spd
kts
Gust
kts
22/11:30pm - - - - - N 24 39 13 21 - - -
22/11:00pm - - - - - N 28 41 15 22 - - -
22/10:30pm - - - - - N 28 39 15 21 - - -
22/10:00pm - - - - - N 30 41 16 22 - - -
22/09:30pm - - - - - N 30 39 16 21 - - -
22/09:00pm - - - - - N 28 41 15 22 - - -
22/08:32pm - - - - - N 28 46 15 25 - - -
22/08:30pm - - - - - N 32 48 17 26 - - -
22/08:21pm - - - - - N 30 48 16 26 - - -
22/08:00pm - - - - - N 30 39 16 21 - - -
22/07:30pm - - - - - N 28 39 15 21 - - -
22/07:00pm - - - - - NNE 28 39 15 21 - - -
22/06:30pm - - - - - NNE 26 37 14 20 - - -
22/06:02pm - - - - - NNE 28 48 15 26 - - -
22/06:00pm - - - - - NNE 26 48 14 26 - - -
22/05:52pm - - - - - NNE 28 46 15 25 - - -
22/05:30pm - - - - - NNE 28 44 15 24 - - -
22/05:01pm - - - - - NE 28 46 15 25 - - -
22/05:00pm - - - - - NE 30 46 16 25 - - -
22/04:30pm - - - - - NE 30 41 16 22 - - -
22/04:00pm - - - - - NE 28 43 15 23 - - -
22/03:37pm - - - - - NNE 30 48 16 26 - - -
22/03:30pm - - - - - NNE 30 44 16 24 - - -
22/03:10pm - - - - - NE 30 48 16 26 - - -
22/03:00pm - - - - - NE 30 41 16 22 - - -
22/02:30pm - - - - - NE 30 41 16 22 - - -
22/02:00pm - - - - - NE 32 43 17 23 - - -
22/01:30pm - - - - - NE 30 46 16 25 - - -
22/01:29pm - - - - - NE 28 46 15 25 - - -
22/01:00pm - - - - - NE 28 39 15 21 - - -
22/12:30pm - - - - - NE 26 39 14 21 - - -
22/12:00pm - - - - - NNE 22 37 12 20 - - -
22/11:30am - - - - - NNE 30 43 16 23 - - -
22/11:00am - - - - - NNE 28 41 15 22 - - -
22/10:30am - - - - - NNE 24 39 13 21 - - -
22/10:00am - - - - - N 24 35 13 19 - - -
22/09:30am - - - - - N 26 39 14 21 - - -
22/09:00am - - - - - N 20 32 11 17 - - -
22/08:30am - - - - - N 19 26 10 14 - - -
22/08:00am - - - - - NNW 17 20 9 11 - - -
22/07:30am - - - - - NNW 15 20 8 11 - - -
22/07:00am - - - - - NNW 17 24 9 13 - - -
22/06:30am - - - - - NNW 17 22 9 12 - - -
22/06:00am - - - - - NNW 17 20 9 11 - - -
22/05:30am - - - - - NNW 17 20 9 11 - - -
22/05:00am - - - - - NNW 15 19 8 10 - - -
22/04:30am - - - - - NNW 15 19 8 10 - - -
22/04:00am - - - - - NNW 15 17 8 9 - - -
22/03:30am - - - - - NNW 13 17 7 9 - - -
22/03:00am - - - - - NNW 15 19 8 10 - - -
22/02:30am - - - - - NNW 13 19 7 10 - - -
22/02:00am - - - - - NNW 17 20 9 11 - - -
22/01:30am - - - - - NNW 15 19 8 10 - - -
22/01:00am - - - - - N 17 19 9 10 - - -
22/12:30am - - - - - N 17 24 9 13 - - -
22/12:00am - - - - - N 20 28 11 15 - - -
 
Date/Time
EDT
Temp
°C
App
Temp
°C
Dew
Point
°C
Rel
Hum
%
Delta-T
°C
Wind Press
QNH
hPa
Press
MSL
hPa
Rain since
9am
mm
Dir  Spd
km/h
Gust
km/h
Spd
kts
Gust
kts
21/11:30pm - - - - - N 19 22 10 12 - - -
21/11:00pm - - - - - N 19 26 10 14 - - -
21/10:30pm - - - - - N 22 33 12 18 - - -
21/10:00pm - - - - - N 20 28 11 15 - - -
21/09:30pm - - - - - N 19 26 10 14 - - -
21/09:00pm - - - - - NNE 17 24 9 13 - - -
21/08:30pm - - - - - NE 22 33 12 18 - - -
21/08:00pm - - - - - NE 22 32 12 17 - - -
21/07:30pm - - - - - NE 22 32 12 17 - - -
21/07:00pm - - - - - ENE 17 28 9 15 - - -
21/06:30pm - - - - - ENE 19 28 10 15 - - -
21/06:00pm - - - - - ENE 15 20 8 11 - - -
21/05:30pm - - - - - ENE 15 19 8 10 - - -
21/05:00pm - - - - - ENE 15 19 8 10 - - -
21/04:30pm - - - - - ESE 17 20 9 11 - - -
21/04:00pm - - - - - ESE 13 17 7 9 - - -
21/03:30pm - - - - - ESE 13 19 7 10 - - -
21/03:00pm - - - - - SE 17 19 9 10 - - -
21/02:30pm - - - - - SSE 17 19 9 10 - - -
21/02:00pm - - - - - SSE 15 17 8 9 - - -
21/01:30pm - - - - - S 11 13 6 7 - - -
21/01:00pm - - - - - S 13 15 7 8 - - -
21/12:30pm - - - - - S 17 22 9 12 - - -
21/12:00pm - - - - - S 15 19 8 10 - - -
21/11:30am - - - - - S 19 19 10 10 - - -
21/11:00am - - - - - S 19 22 10 12 - - -
21/10:30am - - - - - S 20 24 11 13 - - -
21/10:00am - - - - - S 19 20 10 11 - - -
21/09:30am - - - - - S 17 19 9 10 - - -
21/09:00am - - - - - S 15 17 8 9 - - -
21/08:30am - - - - - S 11 15 6 8 - - -
21/08:00am - - - - - S 9 11 5 6 - - -
21/07:30am - - - - - SW 9 11 5 6 - - -
21/07:00am - - - - - SSW 9 13 5 7 - - -
21/06:30am - - - - - SSW 9 13 5 7 - - -
21/06:00am - - - - - SW 13 15 7 8 - - -

Latest Capital City Observations: Canberra | Sydney | Melbourne | Brisbane | Adelaide | Perth | Hobart | Darwin

Other Formats:

Comma delimited format used in spreadsheet applications
http://www.bom.gov.au/fwo/IDN60901/IDN60901.95752.axf

JavaScript Object Notation format (JSON) in row-major order
http://www.bom.gov.au/fwo/IDN60901/IDN60901.95752.json